createdAt,value
2018-04-26T00:00:27.842Z,1.50
2018-04-26T00:02:55.746Z,1.30
2018-04-26T00:05:23.727Z,1.13
2018-04-26T00:07:51.544Z,1.47
2018-04-26T00:10:19.492Z,1.47
2018-04-26T00:12:47.353Z,1.47
2018-04-26T00:15:15.276Z,1.27
2018-04-26T00:17:43.243Z,1.30
2018-04-26T00:20:11.138Z,1.20
2018-04-26T00:22:39.023Z,1.50
2018-04-26T00:25:07.009Z,1.50
2018-04-26T00:27:35.645Z,1.10
2018-04-26T00:30:03.655Z,1.27
2018-04-26T00:32:31.495Z,1.90
2018-04-26T00:34:59.482Z,1.40
2018-04-26T00:37:28.135Z,1.20
2018-04-26T00:39:56.159Z,1.27
2018-04-26T00:42:23.954Z,1.20
2018-04-26T00:44:52.097Z,1.40
2018-04-26T00:47:20.686Z,1.43
2018-04-26T00:49:48.495Z,1.37
2018-04-26T00:52:16.457Z,1.10
2018-04-26T00:54:44.457Z,1.27
2018-04-26T00:57:12.282Z,1.13
2018-04-26T00:59:40.123Z,1.20
2018-04-26T01:02:07.984Z,1.60
2018-04-26T01:04:36.634Z,1.10
2018-04-26T01:07:04.474Z,1.23
2018-04-26T01:09:32.539Z,1.30
2018-04-26T01:12:00.616Z,1.17
2018-04-26T01:14:28.437Z,1.40
2018-04-26T01:16:56.431Z,1.20
2018-04-26T01:19:24.453Z,1.30
2018-04-26T01:21:52.272Z,1.20
2018-04-26T01:24:20.134Z,1.37
2018-04-26T01:26:47.969Z,1.30
2018-04-26T01:29:15.911Z,1.13
2018-04-26T01:31:43.728Z,1.30
2018-04-26T01:34:11.785Z,1.40
2018-04-26T01:36:39.598Z,1.30
2018-04-26T01:39:08.233Z,1.27
2018-04-26T01:41:36.060Z,1.27
2018-04-26T01:44:04.000Z,1.20
2018-04-26T01:46:31.896Z,1.20
2018-04-26T01:48:59.816Z,1.27
2018-04-26T01:51:27.832Z,1.50
2018-04-26T01:53:55.821Z,1.40
2018-04-26T01:56:23.813Z,1.17
2018-04-26T01:58:51.817Z,0.93
2018-04-26T02:01:19.580Z,1.30
2018-04-26T02:03:48.161Z,1.10
2018-04-26T02:06:16.792Z,1.20
2018-04-26T02:08:44.526Z,1.00
2018-04-26T02:11:14.016Z,1.30
2018-04-26T02:13:42.621Z,1.20
2018-04-26T02:16:11.224Z,1.10
2018-04-26T02:18:39.076Z,1.23
2018-04-26T02:21:06.817Z,1.30
2018-04-26T02:23:35.531Z,1.20
2018-04-26T02:26:03.501Z,1.20
2018-04-26T02:28:31.312Z,1.10
2018-04-26T02:30:59.143Z,1.00
2018-04-26T02:33:27.003Z,1.10
2018-04-26T02:35:54.787Z,1.27
2018-04-26T02:38:22.721Z,1.33
2018-04-26T02:40:50.624Z,1.37
2018-04-26T02:43:19.205Z,1.00
2018-04-26T02:45:47.099Z,1.20
2018-04-26T02:48:15.825Z,1.20
2018-04-26T02:50:43.693Z,1.27
2018-04-26T02:53:11.619Z,1.10
2018-04-26T02:55:40.227Z,1.73
2018-04-26T02:58:08.131Z,1.10
2018-04-26T03:00:35.998Z,1.00
2018-04-26T03:03:03.859Z,1.10
2018-04-26T03:05:31.671Z,1.07
2018-04-26T03:07:59.551Z,1.17
2018-04-26T03:10:27.440Z,1.10
2018-04-26T03:12:55.260Z,1.17
2018-04-26T03:15:23.149Z,0.97
2018-04-26T03:17:51.047Z,1.10
2018-04-26T03:20:18.830Z,0.90
2018-04-26T03:22:46.761Z,1.10
2018-04-26T03:25:14.752Z,1.00
2018-04-26T03:27:42.608Z,1.20
2018-04-26T03:30:10.415Z,1.03
2018-04-26T03:32:39.085Z,1.10
2018-04-26T03:35:07.750Z,1.10
2018-04-26T03:37:35.672Z,1.10
2018-04-26T03:40:03.522Z,1.00
2018-04-26T03:42:31.392Z,1.30
2018-04-26T03:44:59.207Z,1.20
2018-04-26T03:47:27.064Z,1.10
2018-04-26T03:49:54.988Z,1.03
2018-04-26T03:52:22.802Z,1.00
2018-04-26T03:54:50.691Z,1.00
2018-04-26T03:57:19.310Z,1.10
2018-04-26T03:59:47.094Z,1.47
2018-04-26T04:02:14.933Z,1.00
2018-04-26T04:04:42.727Z,1.03
2018-04-26T04:07:10.552Z,2.20
2018-04-26T04:09:38.386Z,1.07
2018-04-26T04:12:06.477Z,1.00
2018-04-26T04:14:35.058Z,1.00
2018-04-26T04:17:03.754Z,1.20
2018-04-26T04:19:31.639Z,1.00
2018-04-26T04:21:59.486Z,1.07
2018-04-26T04:24:27.354Z,1.00
2018-04-26T04:26:55.311Z,0.90
2018-04-26T04:29:23.900Z,1.03
2018-04-26T04:31:51.800Z,0.90
2018-04-26T04:34:19.707Z,0.90
2018-04-26T04:36:48.454Z,1.07
2018-04-26T04:39:16.309Z,1.10
2018-04-26T04:41:44.267Z,1.13
2018-04-26T04:44:12.213Z,1.07
2018-04-26T04:46:40.104Z,0.97
2018-04-26T04:49:08.351Z,1.00
2018-04-26T04:51:36.185Z,1.00
2018-04-26T04:54:03.993Z,1.10
2018-04-26T04:56:31.883Z,0.93
2018-04-26T04:58:59.691Z,1.00
2018-04-26T05:01:28.199Z,0.97
2018-04-26T05:03:56.001Z,1.10
2018-04-26T05:06:23.845Z,1.10
2018-04-26T05:08:51.717Z,0.97
2018-04-26T05:11:19.513Z,1.00
2018-04-26T05:13:47.369Z,1.00
2018-04-26T05:16:15.161Z,1.00
2018-04-26T05:18:43.191Z,0.93
2018-04-26T05:21:11.227Z,1.00
2018-04-26T05:23:39.046Z,1.10
2018-04-26T05:26:06.872Z,1.00
2018-04-26T05:28:34.671Z,0.93
2018-04-26T05:31:03.214Z,1.00
2018-04-26T05:33:31.142Z,1.03
2018-04-26T05:35:59.830Z,1.10
2018-04-26T05:38:27.668Z,1.10
2018-04-26T05:40:55.560Z,1.00
2018-04-26T05:43:23.411Z,1.03
2018-04-26T05:45:52.070Z,1.20
2018-04-26T05:48:19.880Z,0.90
2018-04-26T05:50:47.734Z,1.20
2018-04-26T05:53:15.611Z,1.00
2018-04-26T05:55:44.321Z,1.10
2018-04-26T05:58:12.265Z,1.03
2018-04-26T06:00:40.034Z,1.00
2018-04-26T06:03:08.067Z,1.10
2018-04-26T06:05:36.609Z,2.13
2018-04-26T06:08:04.436Z,7.80
2018-04-26T06:10:32.263Z,7.63
2018-04-26T06:13:00.069Z,5.63
2018-04-26T06:15:27.942Z,4.47
2018-04-26T06:17:55.799Z,5.73
2018-04-26T06:20:23.589Z,4.50
2018-04-26T06:22:51.364Z,5.47
2018-04-26T06:25:19.110Z,5.50
2018-04-26T06:27:46.949Z,6.83
2018-04-26T06:30:14.697Z,4.43
2018-04-26T06:32:43.228Z,4.50
2018-04-26T06:35:11.101Z,4.27
2018-04-26T06:37:38.997Z,6.97
2018-04-26T06:40:07.625Z,4.63
2018-04-26T06:42:35.454Z,3.43
2018-04-26T06:45:03.377Z,5.13
2018-04-26T06:47:31.276Z,3.67
2018-04-26T06:49:59.826Z,3.87
2018-04-26T06:52:27.885Z,3.30
2018-04-26T06:54:55.640Z,3.73
2018-04-26T06:57:23.511Z,3.47
2018-04-26T06:59:51.508Z,2.53
2018-04-26T07:02:19.484Z,4.80
2018-04-26T07:04:48.120Z,3.73
2018-04-26T07:07:15.911Z,4.67
2018-04-26T07:09:43.683Z,3.17
2018-04-26T07:12:11.573Z,3.40
2018-04-26T07:14:39.382Z,4.13
2018-04-26T07:17:07.193Z,4.50
2018-04-26T07:19:35.876Z,3.33
2018-04-26T07:22:04.436Z,3.30
2018-04-26T07:24:32.260Z,4.90
2018-04-26T07:27:00.120Z,4.27
2018-04-26T07:29:27.952Z,6.23
2018-04-26T07:31:56.630Z,6.13
2018-04-26T07:34:25.260Z,6.57
2018-04-26T07:36:53.082Z,5.33
2018-04-26T07:39:21.762Z,5.43
2018-04-26T07:41:50.430Z,8.93
2018-04-26T07:44:18.224Z,5.60
2018-04-26T07:46:46.229Z,7.70
2018-04-26T07:49:14.976Z,5.07
2018-04-26T07:51:42.699Z,7.23
2018-04-26T07:54:10.518Z,4.83
2018-04-26T07:56:38.356Z,6.37
2018-04-26T07:59:06.139Z,5.13
2018-04-26T08:01:34.049Z,6.37
2018-04-26T08:04:01.832Z,4.67
2018-04-26T08:06:29.701Z,5.20
2018-04-26T08:08:57.727Z,6.33
2018-04-26T08:11:25.456Z,4.77
2018-04-26T08:13:53.323Z,4.63
2018-04-26T08:16:21.309Z,4.80
2018-04-26T08:18:49.167Z,5.83
2018-04-26T08:21:17.042Z,4.83
2018-04-26T08:23:45.233Z,7.93
2018-04-26T08:26:13.096Z,5.27
2018-04-26T08:28:41.214Z,7.97
2018-04-26T08:31:09.874Z,5.17
2018-04-26T08:33:37.657Z,4.03
2018-04-26T08:36:06.318Z,3.97
2018-04-26T08:38:34.185Z,4.37
2018-04-26T08:41:02.041Z,5.40
2018-04-26T08:43:29.951Z,7.73
2018-04-26T08:45:57.818Z,4.43
2018-04-26T08:48:25.648Z,5.97
2018-04-26T08:50:53.580Z,4.27
2018-04-26T08:53:21.388Z,5.97
2018-04-26T08:55:50.043Z,4.63
2018-04-26T08:58:17.878Z,5.23
2018-04-26T09:00:45.918Z,4.77
2018-04-26T09:03:13.648Z,7.40
2018-04-26T09:05:41.432Z,5.13
2018-04-26T09:08:09.998Z,5.70
2018-04-26T09:10:37.975Z,6.57
2018-04-26T09:13:06.540Z,4.07
2018-04-26T09:15:34.344Z,4.83
2018-04-26T09:18:02.278Z,4.87
2018-04-26T09:20:30.146Z,6.00
2018-04-26T09:22:58.193Z,4.70
2018-04-26T09:25:26.035Z,4.53
2018-04-26T09:27:53.894Z,4.50
2018-04-26T09:30:21.748Z,4.20
2018-04-26T09:32:49.555Z,4.93
2018-04-26T09:35:17.331Z,3.87
2018-04-26T09:37:45.187Z,4.23
2018-04-26T09:40:13.131Z,5.23
2018-04-26T09:42:40.916Z,5.27
2018-04-26T09:45:08.748Z,4.40
2018-04-26T09:47:36.830Z,4.37
2018-04-26T09:50:04.631Z,4.13
2018-04-26T09:52:33.219Z,5.03
2018-04-26T09:55:01.711Z,6.03
2018-04-26T09:57:29.561Z,7.43
2018-04-26T09:59:58.248Z,5.53
2018-04-26T10:02:26.190Z,6.30
2018-04-26T10:04:54.185Z,7.70
2018-04-26T10:07:22.709Z,5.70
2018-04-26T10:09:50.552Z,13.17
2018-04-26T10:12:18.291Z,5.93
2018-04-26T10:14:46.923Z,6.63
2018-04-26T10:17:14.914Z,6.87
2018-04-26T10:19:42.665Z,7.10
2018-04-26T10:22:10.368Z,7.17
2018-04-26T10:24:39.147Z,6.80
2018-04-26T10:27:06.943Z,5.40
2018-04-26T10:29:34.943Z,5.83
2018-04-26T10:32:02.770Z,6.87
2018-04-26T10:34:30.538Z,6.73
2018-04-26T10:36:58.541Z,5.40
2018-04-26T10:39:26.473Z,6.27
2018-04-26T10:41:54.300Z,5.70
2018-04-26T10:44:23.070Z,5.67
2018-04-26T10:46:50.974Z,6.50
2018-04-26T10:49:18.798Z,6.47
2018-04-26T10:51:46.792Z,6.10
2018-04-26T10:54:15.535Z,5.43
2018-04-26T10:56:43.420Z,5.93
2018-04-26T10:59:11.275Z,5.10
2018-04-26T11:01:39.009Z,6.10
2018-04-26T11:04:06.954Z,5.00
2018-04-26T11:06:34.842Z,5.33
2018-04-26T11:09:02.806Z,7.77
2018-04-26T11:11:30.697Z,8.47
2018-04-26T11:13:59.233Z,9.90
2018-04-26T11:16:26.996Z,7.60
2018-04-26T11:18:54.711Z,8.90
2018-04-26T11:21:22.665Z,5.77
2018-04-26T11:23:51.330Z,5.50
2018-04-26T11:26:19.153Z,6.63
2018-04-26T11:28:47.849Z,7.00
2018-04-26T11:31:15.664Z,6.03
2018-04-26T11:33:43.547Z,6.77
2018-04-26T11:36:11.466Z,5.30
2018-04-26T11:38:39.393Z,4.23
2018-04-26T11:41:07.885Z,7.13
2018-04-26T11:43:35.651Z,6.40
2018-04-26T11:46:03.541Z,3.90
2018-04-26T11:48:31.307Z,5.03
2018-04-26T11:50:59.118Z,5.07
2018-04-26T11:53:27.724Z,8.50
2018-04-26T11:55:55.468Z,8.00
2018-04-26T11:58:24.105Z,6.73
2018-04-26T12:00:51.990Z,8.23
2018-04-26T12:03:19.759Z,7.40
2018-04-26T12:05:47.667Z,10.00
2018-04-26T12:08:15.512Z,11.20
2018-04-26T12:10:43.253Z,13.43
2018-04-26T12:13:11.180Z,16.70
2018-04-26T12:15:39.860Z,19.03
2018-04-26T12:18:07.715Z,17.67
2018-04-26T12:20:35.513Z,17.57
2018-04-26T12:23:03.338Z,15.00
2018-04-26T12:25:31.324Z,20.77
2018-04-26T12:27:59.071Z,9.83
2018-04-26T12:30:26.831Z,11.87
2018-04-26T12:32:54.816Z,14.73
2018-04-26T12:35:22.761Z,15.37
2018-04-26T12:37:50.750Z,16.77
2018-04-26T12:40:18.571Z,15.03
2018-04-26T12:42:47.206Z,12.17
2018-04-26T12:45:14.956Z,11.33
2018-04-26T12:47:42.865Z,13.10
2018-04-26T12:50:10.914Z,10.50
2018-04-26T12:52:39.532Z,11.03
2018-04-26T12:55:08.141Z,10.20
2018-04-26T12:57:35.969Z,10.27
2018-04-26T13:00:03.879Z,13.27
2018-04-26T13:02:31.858Z,11.13
2018-04-26T13:04:59.815Z,11.97
2018-04-26T13:07:27.632Z,10.53
2018-04-26T13:09:56.204Z,8.10
2018-04-26T13:12:23.949Z,10.10
2018-04-26T13:14:51.916Z,10.60
2018-04-26T13:17:19.635Z,6.57
2018-04-26T13:19:47.484Z,8.03
2018-04-26T13:22:16.222Z,9.33
2018-04-26T13:24:44.074Z,9.50
2018-04-26T13:27:11.957Z,11.23
2018-04-26T13:29:40.490Z,10.47
2018-04-26T13:32:08.328Z,8.27
2018-04-26T13:34:36.131Z,10.63
2018-04-26T13:37:04.033Z,7.77
2018-04-26T13:39:31.794Z,8.23
2018-04-26T13:41:59.627Z,10.57
2018-04-26T13:44:27.597Z,10.53
2018-04-26T13:46:55.447Z,11.47
2018-04-26T13:49:23.216Z,11.63
2018-04-26T13:51:51.090Z,10.07
2018-04-26T13:54:18.798Z,7.40
2018-04-26T13:56:46.768Z,7.47
2018-04-26T13:59:14.572Z,8.10
2018-04-26T14:01:42.343Z,8.60
2018-04-26T14:04:10.159Z,10.00
2018-04-26T14:06:38.051Z,8.50
2018-04-26T14:09:06.646Z,10.43
2018-04-26T14:11:34.380Z,8.67
2018-04-26T14:14:02.499Z,7.33
2018-04-26T14:16:30.295Z,8.27
2018-04-26T14:18:58.090Z,8.83
2018-04-26T14:21:26.755Z,7.63
2018-04-26T14:23:54.532Z,8.80
2018-04-26T14:26:23.188Z,8.43
2018-04-26T14:28:50.971Z,10.53
2018-04-26T14:31:18.789Z,7.83
2018-04-26T14:33:46.862Z,10.10
2018-04-26T14:36:14.756Z,6.70
2018-04-26T14:38:42.693Z,8.93
2018-04-26T14:41:10.665Z,8.47
2018-04-26T14:43:38.486Z,7.07
2018-04-26T14:46:06.322Z,8.80
2018-04-26T14:48:34.207Z,6.60
2018-04-26T14:51:02.853Z,7.20
2018-04-26T14:53:30.726Z,6.83
2018-04-26T14:55:58.491Z,7.87
2018-04-26T14:58:26.303Z,6.90
2018-04-26T15:00:54.215Z,6.63
2018-04-26T15:03:22.192Z,7.63
2018-04-26T15:05:49.959Z,6.70
2018-04-26T15:08:17.818Z,6.93
2018-04-26T15:10:45.680Z,7.90
2018-04-26T15:13:13.548Z,8.53
2018-04-26T15:15:41.368Z,8.90
2018-04-26T15:18:09.158Z,9.47
2018-04-26T15:20:36.968Z,6.70
2018-04-26T15:23:05.581Z,9.23
2018-04-26T15:25:33.506Z,8.07
2018-04-26T15:28:02.330Z,8.77
2018-04-26T15:30:30.105Z,6.70
2018-04-26T15:32:57.998Z,7.60
2018-04-26T15:35:25.903Z,8.67
2018-04-26T15:37:53.640Z,6.10
2018-04-26T15:40:21.566Z,5.37
2018-04-26T15:42:49.555Z,5.60
2018-04-26T15:45:18.204Z,6.87
2018-04-26T15:47:46.191Z,4.90
2018-04-26T15:50:14.309Z,6.90
2018-04-26T15:52:43.007Z,5.60
2018-04-26T15:55:11.026Z,5.03
2018-04-26T15:57:38.941Z,6.87
2018-04-26T16:00:06.916Z,7.67
2018-04-26T16:02:34.904Z,5.93
2018-04-26T16:05:02.939Z,5.67
2018-04-26T16:07:30.788Z,6.10
2018-04-26T16:09:58.751Z,5.60
2018-04-26T16:12:27.027Z,5.37
2018-04-26T16:14:54.979Z,4.80
2018-04-26T16:17:22.889Z,8.80
2018-04-26T16:19:50.841Z,5.73
2018-04-26T16:22:19.500Z,4.73
2018-04-26T16:24:47.643Z,4.23
2018-04-26T16:27:15.469Z,5.40
2018-04-26T16:29:43.312Z,5.10
2018-04-26T16:32:12.048Z,4.57
2018-04-26T16:34:39.868Z,4.67
2018-04-26T16:37:08.484Z,4.63
2018-04-26T16:39:36.281Z,6.27
2018-04-26T16:42:04.837Z,5.80
2018-04-26T16:44:32.678Z,4.60
2018-04-26T16:47:00.661Z,4.87
2018-04-26T16:49:28.543Z,4.00
2018-04-26T16:51:56.417Z,5.80
2018-04-26T16:54:24.195Z,6.20
2018-04-26T16:56:52.149Z,5.37
2018-04-26T16:59:19.959Z,4.03
2018-04-26T17:01:47.799Z,5.33
2018-04-26T17:04:15.840Z,3.77
2018-04-26T17:06:43.754Z,6.10
2018-04-26T17:09:11.636Z,6.80
2018-04-26T17:11:39.540Z,5.37
2018-04-26T17:14:08.024Z,4.33
2018-04-26T17:16:35.881Z,4.93
2018-04-26T17:19:04.604Z,4.47
2018-04-26T17:21:32.421Z,4.77
2018-04-26T17:24:01.318Z,7.83
2018-04-26T17:26:29.102Z,5.20
2018-04-26T17:28:57.039Z,3.60
2018-04-26T17:31:25.000Z,5.57
2018-04-26T17:33:52.967Z,5.07
2018-04-26T17:36:20.742Z,5.90
2018-04-26T17:38:48.571Z,3.83
2018-04-26T17:41:16.401Z,5.77
2018-04-26T17:43:44.783Z,5.57
2018-04-26T17:46:12.743Z,3.27
2018-04-26T17:48:40.635Z,3.37
2018-04-26T17:51:08.491Z,3.90
2018-04-26T17:53:37.189Z,3.77
2018-04-26T17:56:05.185Z,3.63
2018-04-26T17:58:32.996Z,3.77
2018-04-26T18:01:01.824Z,4.23
2018-04-26T18:03:29.587Z,4.33
2018-04-26T18:05:57.551Z,3.97
2018-04-26T18:08:25.517Z,4.40
2018-04-26T18:10:53.417Z,5.67
2018-04-26T18:13:21.252Z,3.83
2018-04-26T18:15:49.096Z,4.63
2018-04-26T18:18:16.893Z,5.03
2018-04-26T18:20:44.697Z,4.43
2018-04-26T18:23:12.659Z,3.60
2018-04-26T18:25:40.539Z,2.90
2018-04-26T18:28:09.163Z,3.90
2018-04-26T18:30:37.063Z,3.10
2018-04-26T18:33:04.990Z,4.20
2018-04-26T18:35:32.764Z,6.20
2018-04-26T18:38:00.736Z,3.30
2018-04-26T18:40:28.561Z,3.73
2018-04-26T18:42:57.174Z,3.53
2018-04-26T18:45:25.153Z,3.97
2018-04-26T18:47:53.080Z,3.00
2018-04-26T18:50:21.008Z,3.70
2018-04-26T18:52:48.958Z,3.83
2018-04-26T18:55:16.790Z,3.30
2018-04-26T18:57:44.586Z,3.20
2018-04-26T19:00:12.505Z,3.47
2018-04-26T19:02:40.330Z,4.60
2018-04-26T19:05:08.111Z,3.20
2018-04-26T19:07:36.685Z,4.43
2018-04-26T19:10:04.713Z,3.93
2018-04-26T19:12:32.588Z,3.20
2018-04-26T19:15:00.398Z,3.40
2018-04-26T19:17:29.149Z,5.77
2018-04-26T19:19:56.961Z,3.70
2018-04-26T19:22:25.626Z,3.57
2018-04-26T19:24:53.539Z,3.57
2018-04-26T19:27:21.320Z,3.03
2018-04-26T19:29:49.340Z,3.47
2018-04-26T19:32:17.198Z,4.43
2018-04-26T19:34:45.773Z,2.87
2018-04-26T19:37:14.628Z,3.17
2018-04-26T19:39:42.449Z,3.30
2018-04-26T19:42:10.501Z,3.20
2018-04-26T19:44:39.089Z,3.20
2018-04-26T19:47:07.599Z,3.33
2018-04-26T19:49:35.471Z,3.17
2018-04-26T19:52:03.224Z,3.40
2018-04-26T19:54:31.111Z,3.47
2018-04-26T19:56:59.640Z,3.27
2018-04-26T19:59:28.359Z,3.23
2018-04-26T20:01:56.310Z,4.40
2018-04-26T20:04:24.236Z,2.97
2018-04-26T20:06:52.315Z,3.00
2018-04-26T20:09:20.219Z,3.10
2018-04-26T20:11:48.984Z,3.27
2018-04-26T20:14:17.543Z,3.30
2018-04-26T20:16:45.358Z,3.33
2018-04-26T20:19:13.319Z,3.47
2018-04-26T20:21:41.110Z,3.40
2018-04-26T20:24:08.910Z,3.43
2018-04-26T20:26:37.635Z,4.20
2018-04-26T20:29:05.481Z,3.07
2018-04-26T20:31:33.266Z,2.70
2018-04-26T20:34:01.244Z,3.17
2018-04-26T20:36:29.090Z,3.90
2018-04-26T20:38:56.939Z,4.23
2018-04-26T20:41:24.882Z,3.30
2018-04-26T20:43:52.596Z,3.07
2018-04-26T20:46:20.600Z,3.63
2018-04-26T20:48:48.579Z,3.27
2018-04-26T20:51:17.343Z,3.30
2018-04-26T20:53:45.196Z,2.87
2018-04-26T20:56:12.976Z,2.90
2018-04-26T20:58:40.966Z,3.70
2018-04-26T21:01:09.579Z,3.53
2018-04-26T21:03:37.435Z,2.80
2018-04-26T21:06:05.473Z,2.90
2018-04-26T21:08:34.000Z,3.20
2018-04-26T21:11:01.811Z,3.00
2018-04-26T21:13:29.710Z,3.17
2018-04-26T21:15:57.525Z,3.03
2018-04-26T21:18:25.342Z,3.03
2018-04-26T21:20:53.255Z,3.43
2018-04-26T21:23:21.040Z,2.97
2018-04-26T21:25:48.918Z,2.80
2018-04-26T21:28:17.490Z,3.00
2018-04-26T21:30:46.075Z,3.80
2018-04-26T21:33:14.678Z,3.10
2018-04-26T21:35:42.567Z,2.70
2018-04-26T21:38:10.306Z,3.07
2018-04-26T21:40:38.153Z,2.83
2018-04-26T21:43:06.117Z,3.70
2018-04-26T21:45:33.902Z,3.10
2018-04-26T21:48:01.914Z,3.37
2018-04-26T21:50:33.004Z,2.90
2018-04-26T21:53:01.038Z,3.90
2018-04-26T21:55:28.831Z,3.77
2018-04-26T21:57:57.633Z,3.50
2018-04-26T22:00:25.439Z,2.77
2018-04-26T22:02:53.310Z,3.07
2018-04-26T22:05:21.238Z,2.80
2018-04-26T22:07:49.030Z,3.20
2018-04-26T22:10:16.954Z,3.03
2018-04-26T22:12:44.774Z,4.40
2018-04-26T22:15:12.751Z,3.00
2018-04-26T22:17:40.729Z,2.97
2018-04-26T22:20:09.483Z,2.80
2018-04-26T22:22:37.428Z,2.90
2018-04-26T22:25:05.246Z,3.03
2018-04-26T22:27:33.928Z,2.90
2018-04-26T22:30:02.628Z,2.93
2018-04-26T22:32:30.607Z,3.00
2018-04-26T22:34:58.623Z,3.03
2018-04-26T22:37:26.516Z,2.80
2018-04-26T22:39:54.396Z,3.40
2018-04-26T22:42:22.286Z,3.37
2018-04-26T22:44:50.189Z,2.90
2018-04-26T22:47:18.240Z,3.00
2018-04-26T22:49:46.090Z,4.53
2018-04-26T22:52:13.968Z,3.10
2018-04-26T22:54:41.892Z,3.03
2018-04-26T22:57:09.836Z,2.70
2018-04-26T22:59:37.628Z,2.83
2018-04-26T23:02:05.601Z,2.93
2018-04-26T23:04:33.444Z,3.33
2018-04-26T23:07:01.295Z,3.23
2018-04-26T23:09:30.109Z,3.40
2018-04-26T23:11:58.025Z,3.00
2018-04-26T23:14:26.000Z,3.20
2018-04-26T23:16:53.935Z,2.70
2018-04-26T23:19:21.881Z,2.67
2018-04-26T23:21:49.856Z,3.03
2018-04-26T23:24:17.842Z,2.90
2018-04-26T23:26:45.763Z,3.13
2018-04-26T23:29:13.735Z,2.47
2018-04-26T23:31:41.660Z,2.97
2018-04-26T23:34:09.516Z,3.30
2018-04-26T23:36:37.439Z,2.80
2018-04-26T23:39:05.449Z,2.90
2018-04-26T23:41:33.506Z,2.90
2018-04-26T23:44:01.573Z,2.90
2018-04-26T23:46:29.511Z,2.80
2018-04-26T23:48:57.443Z,2.77
2018-04-26T23:51:25.320Z,3.20
2018-04-26T23:53:54.067Z,3.03
2018-04-26T23:56:21.989Z,2.80
2018-04-26T23:58:50.732Z,2.90
